createdAt,value
2022-10-22T00:01:04.635Z,86
2022-10-22T00:06:05.905Z,86
2022-10-22T00:11:07.171Z,86
2022-10-22T00:16:09.223Z,87
2022-10-22T00:21:10.597Z,86
2022-10-22T00:26:12.031Z,86
2022-10-22T00:31:14.025Z,86
2022-10-22T00:36:15.714Z,86
2022-10-22T00:41:17.459Z,87
2022-10-22T00:46:19.087Z,87
2022-10-22T00:51:21.140Z,87
2022-10-22T00:56:22.737Z,87
2022-10-22T01:01:24.735Z,88
2022-10-22T01:06:26.064Z,88
2022-10-22T01:11:28.178Z,89
2022-10-22T01:16:29.718Z,89
2022-10-22T01:21:31.191Z,90
2022-10-22T01:26:33.074Z,90
2022-10-22T01:31:35.109Z,90
2022-10-22T01:41:38.147Z,90
2022-10-22T01:46:40.193Z,90
2022-10-22T02:06:46.668Z,90
2022-10-22T02:11:48.283Z,90
2022-10-22T02:16:50.258Z,90
2022-10-22T02:26:53.502Z,90
2022-10-22T02:31:55.076Z,90
2022-10-22T02:36:56.943Z,91
2022-10-22T02:41:59.047Z,90
2022-10-22T02:47:00.205Z,91
2022-10-22T02:52:01.572Z,91
2022-10-22T03:07:06.643Z,91
2022-10-22T03:12:07.885Z,91
2022-10-22T03:17:09.683Z,91
2022-10-22T03:22:10.821Z,91
2022-10-22T03:27:12.369Z,91
2022-10-22T03:32:14.126Z,92
2022-10-22T03:37:15.242Z,91
2022-10-22T03:42:17.260Z,91
2022-10-22T03:47:19.101Z,91
2022-10-22T03:52:20.954Z,89
2022-10-22T03:57:22.794Z,87
2022-10-22T04:02:24.937Z,88
2022-10-22T04:07:26.319Z,88
2022-10-22T04:12:27.734Z,88
2022-10-22T04:17:29.227Z,88
2022-10-22T04:22:30.931Z,88
2022-10-22T04:27:32.172Z,88
2022-10-22T04:32:34.059Z,88
2022-10-22T04:37:35.558Z,88
2022-10-22T04:42:37.534Z,87
2022-10-22T04:47:39.956Z,87
2022-10-22T04:52:41.589Z,87
2022-10-22T04:57:43.491Z,87
2022-10-22T05:02:45.294Z,87
2022-10-22T05:07:47.436Z,87
2022-10-22T05:12:48.971Z,87
2022-10-22T05:17:50.723Z,87
2022-10-22T05:22:52.067Z,87
2022-10-22T05:27:55.164Z,86
2022-10-22T05:32:55.227Z,86
2022-10-22T05:42:58.713Z,86
2022-10-22T05:48:00.816Z,86
2022-10-22T05:53:02.593Z,86
2022-10-22T05:58:04.484Z,87
2022-10-22T06:03:06.161Z,86
2022-10-22T06:08:08.183Z,86
2022-10-22T06:13:09.432Z,87
2022-10-22T06:18:11.666Z,86
2022-10-22T06:23:13.444Z,86
2022-10-22T06:28:15.442Z,87
2022-10-22T06:33:17.454Z,86
2022-10-22T06:38:18.870Z,87
2022-10-22T06:43:20.338Z,87
2022-10-22T06:48:22.503Z,85
2022-10-22T06:53:23.944Z,86
2022-10-22T06:58:25.564Z,87
2022-10-22T07:03:27.571Z,87
2022-10-22T07:08:29.313Z,87
2022-10-22T07:13:30.748Z,86
2022-10-22T07:18:32.633Z,86
2022-10-22T07:23:34.713Z,86
2022-10-22T07:28:36.152Z,85
2022-10-22T07:33:38.163Z,85
2022-10-22T07:38:39.865Z,85
2022-10-22T07:43:41.397Z,85
2022-10-22T07:48:42.756Z,84
2022-10-22T07:53:44.194Z,84
2022-10-22T07:58:45.607Z,84
2022-10-22T08:03:47.040Z,84
2022-10-22T08:08:48.517Z,83
2022-10-22T08:13:50.645Z,83
2022-10-22T08:18:52.758Z,82
2022-10-22T08:23:53.959Z,82
2022-10-22T08:28:56.052Z,81
2022-10-22T08:33:57.962Z,80
2022-10-22T08:38:59.980Z,80
2022-10-22T08:44:02.019Z,80
2022-10-22T08:49:03.573Z,79
2022-10-22T08:54:05.444Z,79
2022-10-22T08:59:06.629Z,79
2022-10-22T09:04:07.882Z,78
2022-10-22T09:09:09.186Z,79
2022-10-22T09:14:10.821Z,77
2022-10-22T09:19:12.500Z,78
2022-10-22T09:24:13.754Z,78
2022-10-22T09:29:15.183Z,78
2022-10-22T09:34:16.985Z,77
2022-10-22T09:39:18.278Z,76
2022-10-22T09:44:19.645Z,75
2022-10-22T09:49:21.623Z,75
2022-10-22T09:54:23.381Z,73
2022-10-22T09:59:25.322Z,74
2022-10-22T10:04:26.877Z,74
2022-10-22T10:09:28.624Z,74
2022-10-22T10:14:29.932Z,73
2022-10-22T10:19:31.921Z,73
2022-10-22T10:24:33.213Z,72
2022-10-22T10:29:34.919Z,71
2022-10-22T10:34:36.621Z,70
2022-10-22T10:39:37.916Z,70
2022-10-22T10:44:39.824Z,70
2022-10-22T10:49:41.634Z,68
2022-10-22T10:54:43.054Z,66
2022-10-22T10:59:44.327Z,67
2022-10-22T11:04:46.418Z,60
2022-10-22T11:09:47.701Z,57
2022-10-22T11:14:49.575Z,57
2022-10-22T11:19:53.058Z,55
2022-10-22T11:24:52.988Z,56
2022-10-22T11:29:54.148Z,55
2022-10-22T11:34:56.119Z,55
2022-10-22T11:39:57.528Z,55
2022-10-22T11:44:59.666Z,56
2022-10-22T11:50:01.426Z,56
2022-10-22T11:55:03.432Z,57
2022-10-22T12:00:05.581Z,57
2022-10-22T12:05:07.471Z,58
2022-10-22T12:10:08.701Z,59
2022-10-22T12:15:10.109Z,58
2022-10-22T12:20:11.355Z,59
2022-10-22T12:25:13.407Z,59
2022-10-22T12:30:14.666Z,59
2022-10-22T12:35:16.465Z,58
2022-10-22T12:40:18.306Z,57
2022-10-22T12:45:19.454Z,58
2022-10-22T12:50:21.527Z,58
2022-10-22T12:55:22.888Z,58
2022-10-22T13:00:24.979Z,57
2022-10-22T13:05:26.488Z,57
2022-10-22T13:10:28.371Z,58
2022-10-22T13:15:29.901Z,57
2022-10-22T13:20:31.670Z,56
2022-10-22T13:25:33.768Z,57
2022-10-22T13:30:35.444Z,58
2022-10-22T13:35:37.150Z,58
2022-10-22T13:40:38.363Z,58
2022-10-22T13:45:40.177Z,57
2022-10-22T13:50:41.796Z,57
2022-10-22T13:55:43.325Z,57
2022-10-22T14:00:44.760Z,57
2022-10-22T14:05:46.121Z,56
2022-10-22T14:10:47.996Z,56
2022-10-22T14:15:49.920Z,57
2022-10-22T14:20:51.606Z,57
2022-10-22T14:25:52.709Z,57
2022-10-22T14:30:54.367Z,57
2022-10-22T14:35:56.373Z,57
2022-10-22T14:40:57.902Z,57
2022-10-22T14:45:59.758Z,57
2022-10-22T14:51:01.485Z,57
2022-10-22T14:56:03.083Z,56
2022-10-22T15:01:04.402Z,57
2022-10-22T15:06:05.561Z,58
2022-10-22T15:11:07.657Z,57
2022-10-22T15:16:09.610Z,58
2022-10-22T15:21:11.510Z,58
2022-10-22T15:26:13.176Z,58
2022-10-22T15:31:15.110Z,59
2022-10-22T15:36:17.182Z,59
2022-10-22T15:41:18.915Z,60
2022-10-22T15:46:20.150Z,60
2022-10-22T15:51:21.507Z,61
2022-10-22T15:56:23.416Z,62
2022-10-22T16:01:25.242Z,62
2022-10-22T16:06:27.075Z,63
2022-10-22T16:11:29.070Z,64
2022-10-22T16:16:30.820Z,64
2022-10-22T16:21:32.653Z,64
2022-10-22T16:41:44.642Z,67
2022-10-22T16:51:48.271Z,68
2022-10-22T17:11:55.749Z,71
2022-10-22T17:16:57.822Z,72
2022-10-22T17:21:59.241Z,73
2022-10-22T17:27:01.050Z,73
2022-10-22T17:32:03.076Z,73
2022-10-22T17:37:04.967Z,73
2022-10-22T17:42:06.415Z,74
2022-10-22T17:47:08.091Z,75
2022-10-22T17:52:09.606Z,75
2022-10-22T17:57:11.596Z,76
2022-10-22T18:02:13.774Z,76
2022-10-22T18:07:15.672Z,76
2022-10-22T18:12:17.803Z,76
2022-10-22T18:17:19.126Z,76
2022-10-22T18:22:21.238Z,77
2022-10-22T18:27:23.302Z,77
2022-10-22T18:32:25.395Z,77
2022-10-22T18:37:27.387Z,78
2022-10-22T18:42:30.502Z,78
2022-10-22T18:47:30.073Z,78
2022-10-22T18:52:32.199Z,78
2022-10-22T18:57:33.997Z,78
2022-10-22T19:02:35.926Z,78
2022-10-22T19:07:37.917Z,79
2022-10-22T19:12:39.937Z,80
2022-10-22T19:17:41.668Z,79
2022-10-22T19:22:43.008Z,80
2022-10-22T19:27:44.628Z,80
2022-10-22T19:32:46.165Z,80
2022-10-22T19:37:48.440Z,81
2022-10-22T19:42:49.892Z,81
2022-10-22T19:47:51.958Z,80
2022-10-22T19:52:54.068Z,82
2022-10-22T19:57:55.275Z,82
2022-10-22T20:02:57.495Z,81
2022-10-22T20:07:59.768Z,82
2022-10-22T20:13:01.430Z,82
2022-10-22T20:18:03.560Z,82
2022-10-22T20:23:05.210Z,82
2022-10-22T20:28:07.207Z,83
2022-10-22T20:33:08.548Z,82
2022-10-22T20:38:10.280Z,83
2022-10-22T20:43:12.409Z,83
2022-10-22T20:48:14.075Z,83
2022-10-22T20:53:16.877Z,83
2022-10-22T20:58:16.996Z,84
2022-10-22T21:03:18.781Z,83
2022-10-22T21:08:20.430Z,84
2022-10-22T21:13:21.973Z,84
2022-10-22T21:18:23.046Z,84
2022-10-22T21:23:25.124Z,84
2022-10-22T21:28:26.955Z,84
2022-10-22T21:33:28.663Z,85
2022-10-22T21:38:30.114Z,85
2022-10-22T21:43:31.987Z,85
2022-10-22T21:48:33.814Z,86
2022-10-22T21:53:34.994Z,85
2022-10-22T21:58:36.907Z,86
2022-10-22T22:13:42.615Z,85
2022-10-22T22:18:44.411Z,85
2022-10-22T22:23:45.940Z,85
2022-10-22T22:28:47.900Z,85
2022-10-22T22:33:49.809Z,85
2022-10-22T22:38:51.171Z,85
2022-10-22T22:43:52.686Z,85
2022-10-22T22:48:54.413Z,86
2022-10-22T22:53:56.390Z,85
2022-10-22T22:58:58.352Z,85
2022-10-22T23:04:00.159Z,86
2022-10-22T23:09:01.719Z,85
2022-10-22T23:14:03.583Z,85
2022-10-22T23:19:05.573Z,85
2022-10-22T23:24:07.378Z,85
2022-10-22T23:29:09.555Z,85
2022-10-22T23:34:11.516Z,86
2022-10-22T23:39:13.294Z,86
2022-10-22T23:44:14.523Z,85
2022-10-22T23:49:15.733Z,86
2022-10-22T23:54:17.036Z,85
2022-10-22T23:59:18.257Z,85
